createdAt,value
2018-06-13T00:04:14.931Z,10.50
2018-06-13T00:09:17.472Z,10.63
2018-06-13T00:14:20.794Z,9.07
2018-06-13T00:19:23.325Z,9.10
2018-06-13T00:24:26.683Z,9.77
2018-06-13T00:29:29.229Z,8.97
2018-06-13T00:34:31.776Z,9.73
2018-06-13T00:39:34.308Z,11.40
2018-06-13T00:44:36.854Z,11.20
2018-06-13T00:49:39.398Z,13.40
2018-06-13T00:54:41.949Z,11.57
2018-06-13T00:59:44.549Z,11.97
2018-06-13T01:04:47.869Z,11.20
2018-06-13T01:09:51.187Z,12.03
2018-06-13T01:14:53.737Z,12.90
2018-06-13T01:19:56.279Z,12.97
2018-06-13T01:24:59.649Z,13.43
2018-06-13T01:30:02.190Z,13.47
2018-06-13T01:35:05.519Z,13.07
2018-06-13T01:40:08.828Z,11.80
2018-06-13T01:45:12.147Z,22.00
2018-06-13T01:50:15.468Z,14.80
2018-06-13T01:55:18.773Z,12.37
2018-06-13T02:00:21.327Z,12.90
2018-06-13T02:05:23.892Z,11.97
2018-06-13T02:10:26.433Z,11.00
2018-06-13T02:15:28.972Z,10.30
2018-06-13T02:20:32.320Z,11.87
2018-06-13T02:25:34.881Z,9.87
2018-06-13T02:30:37.434Z,9.90
2018-06-13T02:35:40.764Z,8.80
2018-06-13T02:40:43.348Z,9.40
2018-06-13T02:45:45.897Z,8.53
2018-06-13T02:50:48.444Z,7.50
2018-06-13T02:55:50.982Z,7.20
2018-06-13T03:00:53.707Z,6.07
2018-06-13T03:05:56.254Z,5.13
2018-06-13T03:10:58.803Z,4.90
2018-06-13T03:16:01.360Z,6.10
2018-06-13T03:21:03.907Z,5.40
2018-06-13T03:26:06.460Z,5.20
2018-06-13T03:31:08.996Z,5.90
2018-06-13T03:36:11.541Z,5.57
2018-06-13T03:41:14.088Z,4.27
2018-06-13T03:46:16.633Z,6.40
2018-06-13T03:51:19.194Z,6.17
2018-06-13T03:56:21.750Z,5.40
2018-06-13T04:01:24.337Z,5.63
2018-06-13T04:06:26.881Z,5.93
2018-06-13T04:11:29.420Z,5.77
2018-06-13T04:16:31.945Z,5.50
2018-06-13T04:21:34.485Z,4.93
2018-06-13T04:26:37.027Z,5.03
2018-06-13T04:31:39.601Z,5.97
2018-06-13T04:36:42.145Z,4.43
2018-06-13T04:41:44.712Z,4.20
2018-06-13T04:46:47.269Z,4.03
2018-06-13T04:51:49.804Z,4.50
2018-06-13T04:56:52.362Z,4.00
2018-06-13T05:01:54.964Z,4.33
2018-06-13T05:06:57.533Z,3.50
2018-06-13T05:12:00.299Z,3.73
2018-06-13T05:17:02.831Z,4.17
2018-06-13T05:22:05.362Z,3.93
2018-06-13T05:27:07.911Z,4.50
2018-06-13T05:32:10.487Z,3.63
2018-06-13T05:37:13.037Z,3.47
2018-06-13T05:42:15.613Z,3.17
2018-06-13T05:47:18.145Z,3.73
2018-06-13T05:52:20.712Z,3.77
2018-06-13T05:57:23.273Z,3.27
2018-06-13T06:02:25.830Z,3.17
2018-06-13T06:07:28.369Z,3.80
2018-06-13T06:12:31.684Z,4.20
2018-06-13T06:17:34.228Z,3.73
2018-06-13T06:22:36.782Z,4.00
2018-06-13T06:27:39.625Z,4.00
2018-06-13T06:32:42.165Z,3.40
2018-06-13T06:37:44.715Z,3.77
2018-06-13T06:42:47.245Z,3.83
2018-06-13T06:47:49.800Z,4.70
2018-06-13T06:52:52.331Z,4.20
2018-06-13T06:57:54.896Z,4.87
2018-06-13T07:02:57.447Z,3.57
2018-06-13T07:08:00.010Z,3.83
2018-06-13T07:13:02.558Z,3.70
2018-06-13T07:18:05.124Z,4.00
2018-06-13T07:23:07.714Z,3.70
2018-06-13T07:28:10.262Z,2.80
2018-06-13T07:33:12.800Z,3.80
2018-06-13T07:38:15.334Z,3.83
2018-06-13T07:43:17.872Z,3.10
2018-06-13T07:48:20.417Z,3.43
2018-06-13T07:53:22.954Z,3.70
2018-06-13T07:58:25.484Z,4.60
2018-06-13T08:03:28.044Z,3.27
2018-06-13T08:08:30.777Z,3.50
2018-06-13T08:13:34.729Z,3.90
2018-06-13T08:18:37.330Z,3.43
2018-06-13T08:23:39.874Z,4.00
2018-06-13T08:28:42.427Z,4.10
2018-06-13T08:33:45.014Z,3.57
2018-06-13T08:38:47.527Z,3.60
2018-06-13T08:43:50.055Z,3.90
2018-06-13T08:48:52.604Z,3.33
2018-06-13T08:53:55.171Z,3.57
2018-06-13T08:58:58.463Z,3.53
2018-06-13T09:04:01.009Z,3.87
2018-06-13T09:09:03.609Z,4.53
2018-06-13T09:14:06.903Z,3.30
2018-06-13T09:19:09.449Z,3.67
2018-06-13T09:24:12.001Z,4.07
2018-06-13T09:29:14.551Z,4.23
2018-06-13T09:34:17.091Z,3.10
2018-06-13T09:39:19.625Z,3.87
2018-06-13T09:44:22.158Z,4.03
2018-06-13T09:49:24.726Z,3.73
2018-06-13T09:54:27.392Z,3.50
2018-06-13T09:59:29.922Z,3.53
2018-06-13T10:04:32.526Z,3.40
2018-06-13T10:09:35.015Z,3.40
2018-06-13T10:14:37.578Z,3.87
2018-06-13T10:19:40.128Z,3.23
2018-06-13T10:24:42.688Z,3.77
2018-06-13T10:29:45.237Z,3.03
2018-06-13T10:34:47.779Z,3.50
2018-06-13T10:39:50.352Z,3.80
2018-06-13T10:44:52.917Z,3.40
2018-06-13T10:49:55.468Z,3.87
2018-06-13T10:54:58.031Z,2.87
2018-06-13T11:00:00.557Z,3.33
2018-06-13T11:05:03.344Z,2.93
2018-06-13T11:10:05.907Z,3.90
2018-06-13T11:15:08.426Z,3.50
2018-06-13T11:20:10.970Z,4.53
2018-06-13T11:25:13.518Z,2.70
2018-06-13T11:30:16.045Z,3.30
2018-06-13T11:35:18.578Z,3.93
2018-06-13T11:40:21.116Z,3.87
2018-06-13T11:45:23.653Z,4.43
2018-06-13T11:50:26.205Z,4.83
2018-06-13T11:55:28.765Z,4.20
2018-06-13T12:00:31.319Z,4.77
2018-06-13T12:05:33.861Z,4.40
2018-06-13T12:10:36.407Z,3.43
2018-06-13T12:15:38.964Z,4.77
2018-06-13T12:20:41.569Z,3.73
2018-06-13T12:25:44.113Z,4.27
2018-06-13T12:30:46.645Z,4.13
2018-06-13T12:35:49.187Z,4.07
2018-06-13T12:40:51.733Z,4.10
2018-06-13T12:45:54.281Z,3.80
2018-06-13T12:50:57.641Z,3.73
2018-06-13T12:56:00.152Z,3.90
2018-06-13T13:01:02.686Z,4.50
2018-06-13T13:06:05.504Z,4.07
2018-06-13T13:11:08.101Z,5.77
2018-06-13T13:16:10.591Z,4.37
2018-06-13T13:21:13.154Z,4.13
2018-06-13T13:26:15.713Z,3.30
2018-06-13T13:31:18.251Z,4.43
2018-06-13T13:36:20.801Z,5.00
2018-06-13T13:41:23.330Z,5.33
2018-06-13T13:46:25.869Z,5.40
2018-06-13T13:51:28.405Z,5.30
2018-06-13T13:56:30.955Z,5.07
2018-06-13T14:01:33.506Z,5.30
2018-06-13T14:06:36.052Z,5.53
2018-06-13T14:11:38.591Z,5.40
2018-06-13T14:16:41.134Z,5.00
2018-06-13T14:21:43.788Z,6.00
2018-06-13T14:26:46.345Z,4.83
2018-06-13T14:31:48.861Z,4.97
2018-06-13T14:36:51.405Z,4.40
2018-06-13T14:41:53.955Z,6.73
2018-06-13T14:46:56.500Z,4.40
2018-06-13T14:51:59.840Z,5.53
2018-06-13T14:57:02.404Z,5.60
2018-06-13T15:02:05.009Z,5.93
2018-06-13T15:07:07.560Z,5.87
2018-06-13T15:12:10.140Z,5.47
2018-06-13T15:17:12.692Z,3.50
2018-06-13T15:22:15.273Z,2.60
2018-06-13T15:27:17.829Z,2.27
2018-06-13T15:32:20.385Z,3.13
2018-06-13T15:37:22.952Z,2.53
2018-06-13T15:42:27.321Z,2.20
2018-06-13T15:47:29.855Z,2.40
2018-06-13T15:52:33.179Z,2.73
2018-06-13T15:57:35.717Z,5.67
2018-06-13T16:02:38.248Z,2.60
2018-06-13T16:07:40.814Z,3.20
2018-06-13T16:12:43.354Z,2.87
2018-06-13T16:17:45.908Z,2.80
2018-06-13T16:22:48.445Z,2.43
2018-06-13T16:27:50.973Z,2.70
2018-06-13T16:32:54.316Z,2.50
2018-06-13T16:37:56.888Z,2.90
2018-06-13T16:42:59.440Z,2.30
2018-06-13T16:48:01.980Z,2.80
2018-06-13T16:53:04.579Z,2.40
2018-06-13T16:58:07.130Z,2.40
2018-06-13T17:03:09.708Z,2.70
2018-06-13T17:08:12.275Z,2.80
2018-06-13T17:13:14.840Z,2.33
2018-06-13T17:18:17.422Z,2.17
2018-06-13T17:23:19.965Z,2.00
2018-06-13T17:28:22.547Z,2.63
2018-06-13T17:33:25.127Z,3.00
2018-06-13T17:38:28.336Z,2.47
2018-06-13T17:43:30.925Z,1.97
2018-06-13T17:48:34.104Z,2.57
2018-06-13T17:53:36.670Z,2.13
2018-06-13T17:58:39.344Z,2.40
2018-06-13T18:03:41.958Z,1.97
2018-06-13T18:08:45.451Z,2.47
2018-06-13T18:13:47.958Z,2.53
2018-06-13T18:18:50.521Z,2.60
2018-06-13T18:23:53.070Z,2.00
2018-06-13T18:28:55.615Z,2.20
2018-06-13T18:33:58.177Z,2.20
2018-06-13T18:39:00.725Z,2.40
2018-06-13T18:44:03.274Z,2.97
2018-06-13T18:49:05.837Z,2.27
2018-06-13T18:54:09.200Z,2.50
2018-06-13T18:59:11.751Z,2.10
2018-06-13T19:04:14.298Z,2.30
2018-06-13T19:09:16.846Z,2.27
2018-06-13T19:14:20.165Z,2.80
2018-06-13T19:19:23.484Z,2.83
2018-06-13T19:24:26.029Z,2.40
2018-06-13T19:29:28.593Z,2.20
2018-06-13T19:34:31.126Z,2.47
2018-06-13T19:39:33.681Z,2.67
2018-06-13T19:44:36.208Z,2.47
2018-06-13T19:49:38.749Z,2.30
2018-06-13T19:55:00.075Z,2.23
2018-06-13T20:00:02.680Z,2.23
2018-06-13T20:05:10.850Z,2.20
2018-06-13T20:10:13.392Z,1.83
2018-06-13T20:15:31.698Z,2.37
2018-06-13T20:20:35.003Z,2.20
2018-06-13T20:25:37.557Z,2.50
2018-06-13T20:30:56.938Z,2.60
2018-06-13T20:35:59.497Z,2.30
2018-06-13T20:41:02.029Z,1.90
2018-06-13T20:46:04.582Z,2.00
2018-06-13T20:51:07.125Z,1.83
2018-06-13T20:56:09.652Z,2.77
2018-06-13T21:01:12.200Z,2.27
2018-06-13T21:06:14.731Z,1.80
2018-06-13T21:11:17.277Z,2.20
2018-06-13T21:16:19.838Z,2.47
2018-06-13T21:21:22.390Z,1.90
2018-06-13T21:26:25.704Z,2.70
2018-06-13T21:31:28.234Z,2.47
2018-06-13T21:36:30.775Z,2.57
2018-06-13T21:41:33.312Z,1.80
2018-06-13T21:46:35.854Z,1.60
2018-06-13T21:51:38.417Z,1.93
2018-06-13T21:56:41.746Z,2.00
2018-06-13T22:01:44.273Z,1.40
2018-06-13T22:06:46.816Z,1.93
2018-06-13T22:11:49.365Z,1.60
2018-06-13T22:16:52.662Z,1.57
2018-06-13T22:21:55.263Z,1.73
2018-06-13T22:26:57.809Z,1.57
2018-06-13T22:32:00.348Z,1.70
2018-06-13T22:37:03.009Z,1.87
2018-06-13T22:42:05.645Z,2.10
2018-06-13T22:47:08.178Z,2.10
2018-06-13T22:52:10.734Z,1.60
2018-06-13T22:57:13.274Z,2.00
2018-06-13T23:02:15.821Z,1.80
2018-06-13T23:07:18.425Z,1.50
2018-06-13T23:12:21.017Z,2.00
2018-06-13T23:17:23.555Z,1.40
2018-06-13T23:22:26.101Z,1.60
2018-06-13T23:27:28.640Z,2.00
2018-06-13T23:32:31.169Z,1.50
2018-06-13T23:37:33.739Z,1.53
2018-06-13T23:42:36.257Z,2.17
2018-06-13T23:47:38.797Z,1.50
2018-06-13T23:52:41.335Z,1.17
2018-06-13T23:57:43.885Z,1.30
